Sikinos — 9HA2865 — position and weather

sailwx.info

Track history (hours):
 
Tides and Currents Weather Stations Pressure Air Temp Water Temp Dewpoint Dewpoint Depression Visibility Wind Speed Wind Dir Waves Ship Positions

Sikinos

Last reported at 2017-Mar-25 14:33 UTC. Time now 2017-Mar-25 15:32 UTC.
Position N 51°21' E 003°12'.

Length 90 m; draft 4.5 m.

Type: Ship (hazmat cat A). MMSI: 256462000.

Date/timePositionNaut miles runAvg speedWind from/ knotsBaromVisibWave heightAir tempDewpointWater temp
2017-Mar-25 14:33N 51°21' E 003°12'0 0.0
2017-Mar-25 13:33N 51°21' E 003°12'0 0.0
2017-Mar-25 12:30N 51°21' E 003°12'0 0.0
2017-Mar-25 11:33N 51°21' E 003°12'0 0.0
2017-Mar-25 10:33N 51°21' E 003°12'0 0.0
2017-Mar-25 09:33N 51°21' E 003°12'0 0.0
2017-Mar-25 08:33N 51°21' E 003°12'0 0.0
2017-Mar-25 07:33N 51°21' E 003°12'0 0.0
2017-Mar-25 06:33N 51°21' E 003°12'0 0.0
2017-Mar-25 05:33N 51°21' E 003°12'0 0.0
2017-Mar-25 04:33N 51°21' E 003°12'0 0.0
2017-Mar-25 03:33N 51°21' E 003°12'0 0.0
2017-Mar-25 02:30N 51°21' E 003°12'0 0.0
2017-Mar-25 01:33N 51°21' E 003°12'0 0.0
2017-Mar-25 00:33N 51°21' E 003°12'0 0.0
2017-Mar-24 23:33N 51°21' E 003°12'0 0.0
2017-Mar-24 22:33N 51°21' E 003°12'0 0.0
2017-Mar-24 21:33N 51°21' E 003°12'0 0.0
2017-Mar-24 20:33N 51°21' E 003°12'0 0.0
2017-Mar-24 19:33N 51°21' E 003°12'0 0.0
2017-Mar-24 18:33N 51°21' E 003°12'0 0.0
2017-Mar-24 17:33N 51°21' E 003°12'0 0.0
2017-Mar-24 16:30N 51°21' E 003°12'0 0.0
2017-Mar-24 15:33N 51°21' E 003°12'0 0.0
2017-Mar-24 14:33N 51°21' E 003°12'0 0.0
2017-Mar-24 13:33N 51°21' E 003°12'0 0.0
2017-Mar-24 12:33N 51°21' E 003°12'0 0.0
2017-Mar-24 11:33N 51°21' E 003°12'0 0.0
2017-Mar-24 10:33N 51°21' E 003°12'0 0.0
2017-Mar-24 09:33N 51°21' E 003°12'0 0.0
2017-Mar-24 08:33N 51°21' E 003°12'0 0.0
2017-Mar-24 07:33N 51°21' E 003°12'0 0.0
2017-Mar-24 06:33N 51°21' E 003°12'0 0.0
2017-Mar-24 05:33N 51°21' E 003°12'0 0.0
2017-Mar-24 04:33N 51°21' E 003°12'0 0.0
2017-Mar-24 03:33N 51°21' E 003°12'0 0.0
2017-Mar-24 02:33N 51°21' E 003°12'0 0.0
2017-Mar-24 01:33N 51°21' E 003°12'1 1.4
2017-Mar-24 00:33N 51°22' E 003°11'1111.2
2017-Mar-23 23:33N 51°21' E 002°53'8 7.9
2017-Mar-23 22:33N 51°18' E 002°41'1212.1
2017-Mar-23 21:33N 51°08' E 002°31'8 7.5
2017-Mar-23 20:33N 51°03' E 002°22'2 1.8
2017-Mar-23 19:33N 51°03' E 002°19'0 0.0
2017-Mar-23 16:26N 51°03' E 002°19'0 0.0
2017-Mar-23 13:26N 51°03' E 002°19'0 0.0
2017-Mar-23 07:34N 51°03' E 002°20'0 0.0
2017-Mar-23 04:33N 51°03' E 002°20'1 0.6
2017-Mar-23 03:30N 51°03' E 002°21'5 5.4
2017-Mar-23 02:32N 51°03' E 002°12'1111.1
2017-Mar-23 01:33N 51°02' E 001°55'5 5.4
2017-Mar-23 00:33N 51°06' E 002°01'1212.3
2017-Mar-22 23:34N 51°10' E 002°20'1211.5
2017-Mar-22 22:34N 51°18' E 002°33'1010.2
2017-Mar-22 21:34N 51°22' E 002°48'1111.5
2017-Mar-22 20:33N 51°22' E 003°06'4 3.7
2017-Mar-22 19:33N 51°21' E 003°12'0 0.0
2017-Mar-22 18:33N 51°21' E 003°12'0 0.0
2017-Mar-22 17:33N 51°21' E 003°12'0 0.0
2017-Mar-22 16:30N 51°21' E 003°12'0 0.0
2017-Mar-22 15:33N 51°21' E 003°12'0 0.0
2017-Mar-22 14:33N 51°21' E 003°12'0 0.0
2017-Mar-22 13:33N 51°21' E 003°12'0 0.0
2017-Mar-22 12:33N 51°21' E 003°12'0 0.0
2017-Mar-22 11:33N 51°21' E 003°12'0 0.0
2017-Mar-22 10:33N 51°21' E 003°12'0 0.0
2017-Mar-22 09:33N 51°21' E 003°12'0 0.0
2017-Mar-22 08:33N 51°21' E 003°12'0 0.0
2017-Mar-22 07:33N 51°21' E 003°12'0 0.0
2017-Mar-22 06:27N 51°21' E 003°12'0 0.0
2017-Mar-22 05:33N 51°21' E 003°12'0 0.0
2017-Mar-22 04:33N 51°21' E 003°12'0 0.0
2017-Mar-22 03:33N 51°21' E 003°12'0 0.0
2017-Mar-22 02:33N 51°21' E 003°12'0 0.0
2017-Mar-22 01:30N 51°21' E 003°12'0 0.0
2017-Mar-22 00:33N 51°21' E 003°12'0 0.0
2017-Mar-21 23:33N 51°21' E 003°12'0 0.0
2017-Mar-21 22:33N 51°21' E 003°12'0 0.0
2017-Mar-21 21:33N 51°21' E 003°12'0 0.0
2017-Mar-21 20:33N 51°21' E 003°12'0 0.0
2017-Mar-21 19:33N 51°21' E 003°12'0 0.0
2017-Mar-21 18:33N 51°21' E 003°12'0 0.0
2017-Mar-21 17:33N 51°21' E 003°12'0 0.0
2017-Mar-21 16:30N 51°21' E 003°12'0 0.0
2017-Mar-21 15:33N 51°21' E 003°12'2 1.6
2017-Mar-21 14:33N 51°22' E 003°10'1111.4
2017-Mar-21 13:34N 51°23' E 002°52'9 8.5
2017-Mar-21 12:34N 51°28' E 002°42'55 7.8
2017-Mar-21 05:33N 52°04' E 003°49'9 9.0
2017-Mar-21 04:33N 51°60' E 004°02'1110.9
2017-Mar-21 03:34N 51°54' E 004°17'2 1.4
2017-Mar-21 02:28N 51°53' E 004°19'0 0.0
2017-Mar-21 01:28N 51°53' E 004°19'0 0.0
2017-Mar-21 00:22N 51°53' E 004°19'0 0.0
2017-Mar-20 23:28N 51°53' E 004°19'0 0.0
2017-Mar-20 22:28N 51°53' E 004°19'0 0.0
2017-Mar-20 21:28N 51°53' E 004°19'0 0.0
2017-Mar-20 20:28N 51°53' E 004°19'0 0.0
2017-Mar-20 19:28N 51°53' E 004°19'0 0.0
2017-Mar-20 18:28N 51°53' E 004°19'0 0.0
2017-Mar-20 17:28N 51°53' E 004°19'0 0.0
2017-Mar-20 16:16N 51°53' E 004°19'0 0.0
2017-Mar-20 15:28N 51°53' E 004°19'0 0.0
2017-Mar-20 14:22N 51°53' E 004°19'0 0.0
2017-Mar-20 13:04N 51°53' E 004°19'0 0.0
2017-Mar-20 12:10N 51°53' E 004°19'0 0.0
2017-Mar-20 10:28N 51°53' E 004°19'2 1.7
2017-Mar-20 09:33N 51°54' E 004°17'6 6.4
2017-Mar-20 08:33N 51°57' E 004°09'1 1.4
2017-Mar-20 07:31N 51°57' E 004°11'0 0.0
2017-Mar-20 06:31N 51°57' E 004°11'0 0.0
2017-Mar-20 05:31N 51°57' E 004°11'0 0.0
2017-Mar-20 04:28N 51°57' E 004°11'0 0.0
2017-Mar-20 03:31N 51°57' E 004°11'0 0.0
2017-Mar-20 02:31N 51°57' E 004°11'0 0.0
2017-Mar-20 01:31N 51°57' E 004°11'0 0.0
2017-Mar-20 00:31N 51°57' E 004°11'0 0.0
2017-Mar-19 23:31N 51°57' E 004°11'0 0.0
2017-Mar-19 22:31N 51°57' E 004°11'0 0.0
2017-Mar-19 21:28N 51°57' E 004°11'0 0.0
2017-Mar-19 20:31N 51°57' E 004°11'0 0.0
2017-Mar-19 19:31N 51°57' E 004°11'0 0.0
2017-Mar-19 18:31N 51°57' E 004°11'0 0.0
2017-Mar-19 17:31N 51°57' E 004°11'0 0.0
2017-Mar-19 16:31N 51°57' E 004°11'0 0.0
2017-Mar-19 15:33N 51°57' E 004°11'9 8.9
2017-Mar-19 14:33N 51°60' E 003°57'10 9.6
2017-Mar-19 13:33N 51°58' E 003°42'5710.6
2017-Mar-19 08:11N 51°32' E 002°20'813.1
2017-Mar-19 07:33N 51°25' E 002°13'1313.0
2017-Mar-19 06:33N 51°14' E 002°04'1413.8
2017-Mar-19 05:33N 51°06' E 001°46'1514.6
2017-Mar-19 04:33N 50°55' E 001°30'6612.8
2017-Mar-18 23:21N 50°19' E 000°02'4812.7
2017-Mar-18 19:32N 50°06' W 001°11'1010.4
2017-Mar-18 18:33N 50°04' W 001°26'10 9.5
2017-Mar-18 17:33N 50°01' W 001°40'9 9.3
2017-Mar-18 16:33N 49°59' W 001°54'10 9.9
2017-Mar-18 15:33N 49°56' W 002°09'13012.7
2017-Mar-18 05:21N 48°57' W 005°07'1013.0
2017-Mar-18 04:33N 48°52' W 005°21'56611.3
2017-Mar-16 02:26N 40°01' W 009°57'1011.9
2017-Mar-16 01:34N 39°51' W 009°57'1212.0
2017-Mar-16 00:33N 39°39' W 009°57'1211.9
2017-Mar-15 23:33N 39°27' W 009°57'1211.8
2017-Mar-15 22:33N 39°15' W 009°57'1211.6
2017-Mar-15 21:34N 39°04' W 009°57'1211.7
2017-Mar-15 20:34N 38°52' W 009°57'1211.7
2017-Mar-15 19:33N 38°40' W 009°56'1212.0
2017-Mar-15 18:33N 38°28' W 009°53'1212.1
2017-Mar-15 17:34N 38°17' W 009°49'1212.4
2017-Mar-15 16:33N 38°05' W 009°45'1312.3
2017-Mar-15 15:29N 37°52' W 009°42'  
Track history (hours):
 
Tides and Currents Weather Stations Pressure Air Temp Water Temp Dewpoint Dewpoint Depression Visibility Wind Speed Wind Dir Waves Ship Positions

Sikinos

Last reported at 2017-Mar-25 14:33 UTC. Time now 2017-Mar-25 15:32 UTC.
Position N 51°21' E 003°12'.

Length 90 m; draft 4.5 m.

Type: Ship (hazmat cat A). MMSI: 256462000.

Date/timePositionNaut miles runAvg speedWind from/ knotsBaromVisibWave heightAir tempDewpointWater temp
2017-Mar-25 14:33N 51°21' E 003°12'0 0.0
2017-Mar-25 13:33N 51°21' E 003°12'0 0.0
2017-Mar-25 12:30N 51°21' E 003°12'0 0.0
2017-Mar-25 11:33N 51°21' E 003°12'0 0.0
2017-Mar-25 10:33N 51°21' E 003°12'0 0.0
2017-Mar-25 09:33N 51°21' E 003°12'0 0.0
2017-Mar-25 08:33N 51°21' E 003°12'0 0.0
2017-Mar-25 07:33N 51°21' E 003°12'0 0.0
2017-Mar-25 06:33N 51°21' E 003°12'0 0.0
2017-Mar-25 05:33N 51°21' E 003°12'0 0.0
2017-Mar-25 04:33N 51°21' E 003°12'0 0.0
2017-Mar-25 03:33N 51°21' E 003°12'0 0.0
2017-Mar-25 02:30N 51°21' E 003°12'0 0.0
2017-Mar-25 01:33N 51°21' E 003°12'0 0.0
2017-Mar-25 00:33N 51°21' E 003°12'0 0.0
2017-Mar-24 23:33N 51°21' E 003°12'0 0.0
2017-Mar-24 22:33N 51°21' E 003°12'0 0.0
2017-Mar-24 21:33N 51°21' E 003°12'0 0.0
2017-Mar-24 20:33N 51°21' E 003°12'0 0.0
2017-Mar-24 19:33N 51°21' E 003°12'0 0.0
2017-Mar-24 18:33N 51°21' E 003°12'0 0.0
2017-Mar-24 17:33N 51°21' E 003°12'0 0.0
2017-Mar-24 16:30N 51°21' E 003°12'0 0.0
2017-Mar-24 15:33N 51°21' E 003°12'0 0.0
2017-Mar-24 14:33N 51°21' E 003°12'0 0.0
2017-Mar-24 13:33N 51°21' E 003°12'0 0.0
2017-Mar-24 12:33N 51°21' E 003°12'0 0.0
2017-Mar-24 11:33N 51°21' E 003°12'0 0.0
2017-Mar-24 10:33N 51°21' E 003°12'0 0.0
2017-Mar-24 09:33N 51°21' E 003°12'0 0.0
2017-Mar-24 08:33N 51°21' E 003°12'0 0.0
2017-Mar-24 07:33N 51°21' E 003°12'0 0.0
2017-Mar-24 06:33N 51°21' E 003°12'0 0.0
2017-Mar-24 05:33N 51°21' E 003°12'0 0.0
2017-Mar-24 04:33N 51°21' E 003°12'0 0.0
2017-Mar-24 03:33N 51°21' E 003°12'0 0.0
2017-Mar-24 02:33N 51°21' E 003°12'0 0.0
2017-Mar-24 01:33N 51°21' E 003°12'1 1.4
2017-Mar-24 00:33N 51°22' E 003°11'1111.2
2017-Mar-23 23:33N 51°21' E 002°53'8 7.9
2017-Mar-23 22:33N 51°18' E 002°41'1212.1
2017-Mar-23 21:33N 51°08' E 002°31'8 7.5
2017-Mar-23 20:33N 51°03' E 002°22'2 1.8
2017-Mar-23 19:33N 51°03' E 002°19'0 0.0
2017-Mar-23 16:26N 51°03' E 002°19'0 0.0
2017-Mar-23 13:26N 51°03' E 002°19'0 0.0
2017-Mar-23 07:34N 51°03' E 002°20'0 0.0
2017-Mar-23 04:33N 51°03' E 002°20'1 0.6
2017-Mar-23 03:30N 51°03' E 002°21'5 5.4
2017-Mar-23 02:32N 51°03' E 002°12'1111.1
2017-Mar-23 01:33N 51°02' E 001°55'5 5.4
2017-Mar-23 00:33N 51°06' E 002°01'1212.3
2017-Mar-22 23:34N 51°10' E 002°20'1211.5
2017-Mar-22 22:34N 51°18' E 002°33'1010.2
2017-Mar-22 21:34N 51°22' E 002°48'1111.5
2017-Mar-22 20:33N 51°22' E 003°06'4 3.7
2017-Mar-22 19:33N 51°21' E 003°12'0 0.0
2017-Mar-22 18:33N 51°21' E 003°12'0 0.0
2017-Mar-22 17:33N 51°21' E 003°12'0 0.0
2017-Mar-22 16:30N 51°21' E 003°12'0 0.0
2017-Mar-22 15:33N 51°21' E 003°12'0 0.0
2017-Mar-22 14:33N 51°21' E 003°12'0 0.0
2017-Mar-22 13:33N 51°21' E 003°12'0 0.0
2017-Mar-22 12:33N 51°21' E 003°12'0 0.0
2017-Mar-22 11:33N 51°21' E 003°12'0 0.0
2017-Mar-22 10:33N 51°21' E 003°12'0 0.0
2017-Mar-22 09:33N 51°21' E 003°12'0 0.0
2017-Mar-22 08:33N 51°21' E 003°12'0 0.0
2017-Mar-22 07:33N 51°21' E 003°12'0 0.0
2017-Mar-22 06:27N 51°21' E 003°12'0 0.0
2017-Mar-22 05:33N 51°21' E 003°12'0 0.0
2017-Mar-22 04:33N 51°21' E 003°12'0 0.0
2017-Mar-22 03:33N 51°21' E 003°12'0 0.0
2017-Mar-22 02:33N 51°21' E 003°12'0 0.0
2017-Mar-22 01:30N 51°21' E 003°12'0 0.0
2017-Mar-22 00:33N 51°21' E 003°12'0 0.0
2017-Mar-21 23:33N 51°21' E 003°12'0 0.0
2017-Mar-21 22:33N 51°21' E 003°12'0 0.0
2017-Mar-21 21:33N 51°21' E 003°12'0 0.0
2017-Mar-21 20:33N 51°21' E 003°12'0 0.0
2017-Mar-21 19:33N 51°21' E 003°12'0 0.0
2017-Mar-21 18:33N 51°21' E 003°12'0 0.0
2017-Mar-21 17:33N 51°21' E 003°12'0 0.0
2017-Mar-21 16:30N 51°21' E 003°12'0 0.0
2017-Mar-21 15:33N 51°21' E 003°12'2 1.6
2017-Mar-21 14:33N 51°22' E 003°10'1111.4
2017-Mar-21 13:34N 51°23' E 002°52'9 8.5
2017-Mar-21 12:34N 51°28' E 002°42'55 7.8
2017-Mar-21 05:33N 52°04' E 003°49'9 9.0
2017-Mar-21 04:33N 51°60' E 004°02'1110.9
2017-Mar-21 03:34N 51°54' E 004°17'2 1.4
2017-Mar-21 02:28N 51°53' E 004°19'0 0.0
2017-Mar-21 01:28N 51°53' E 004°19'0 0.0
2017-Mar-21 00:22N 51°53' E 004°19'0 0.0
2017-Mar-20 23:28N 51°53' E 004°19'0 0.0
2017-Mar-20 22:28N 51°53' E 004°19'0 0.0
2017-Mar-20 21:28N 51°53' E 004°19'0 0.0
2017-Mar-20 20:28N 51°53' E 004°19'0 0.0
2017-Mar-20 19:28N 51°53' E 004°19'0 0.0
2017-Mar-20 18:28N 51°53' E 004°19'0 0.0
2017-Mar-20 17:28N 51°53' E 004°19'0 0.0
2017-Mar-20 16:16N 51°53' E 004°19'0 0.0
2017-Mar-20 15:28N 51°53' E 004°19'0 0.0
2017-Mar-20 14:22N 51°53' E 004°19'0 0.0
2017-Mar-20 13:04N 51°53' E 004°19'0 0.0
2017-Mar-20 12:10N 51°53' E 004°19'0 0.0
2017-Mar-20 10:28N 51°53' E 004°19'2 1.7
2017-Mar-20 09:33N 51°54' E 004°17'6 6.4
2017-Mar-20 08:33N 51°57' E 004°09'1 1.4
2017-Mar-20 07:31N 51°57' E 004°11'0 0.0
2017-Mar-20 06:31N 51°57' E 004°11'0 0.0
2017-Mar-20 05:31N 51°57' E 004°11'0 0.0
2017-Mar-20 04:28N 51°57' E 004°11'0 0.0
2017-Mar-20 03:31N 51°57' E 004°11'0 0.0
2017-Mar-20 02:31N 51°57' E 004°11'0 0.0
2017-Mar-20 01:31N 51°57' E 004°11'0 0.0
2017-Mar-20 00:31N 51°57' E 004°11'0 0.0
2017-Mar-19 23:31N 51°57' E 004°11'0 0.0
2017-Mar-19 22:31N 51°57' E 004°11'0 0.0
2017-Mar-19 21:28N 51°57' E 004°11'0 0.0
2017-Mar-19 20:31N 51°57' E 004°11'0 0.0
2017-Mar-19 19:31N 51°57' E 004°11'0 0.0
2017-Mar-19 18:31N 51°57' E 004°11'0 0.0
2017-Mar-19 17:31N 51°57' E 004°11'0 0.0
2017-Mar-19 16:31N 51°57' E 004°11'0 0.0
2017-Mar-19 15:33N 51°57' E 004°11'9 8.9
2017-Mar-19 14:33N 51°60' E 003°57'10 9.6
2017-Mar-19 13:33N 51°58' E 003°42'5710.6
2017-Mar-19 08:11N 51°32' E 002°20'813.1
2017-Mar-19 07:33N 51°25' E 002°13'1313.0
2017-Mar-19 06:33N 51°14' E 002°04'1413.8
2017-Mar-19 05:33N 51°06' E 001°46'1514.6
2017-Mar-19 04:33N 50°55' E 001°30'6612.8
2017-Mar-18 23:21N 50°19' E 000°02'4812.7
2017-Mar-18 19:32N 50°06' W 001°11'1010.4
2017-Mar-18 18:33N 50°04' W 001°26'10 9.5
2017-Mar-18 17:33N 50°01' W 001°40'9 9.3
2017-Mar-18 16:33N 49°59' W 001°54'10 9.9
2017-Mar-18 15:33N 49°56' W 002°09'13012.7
2017-Mar-18 05:21N 48°57' W 005°07'1013.0
2017-Mar-18 04:33N 48°52' W 005°21'56611.3
2017-Mar-16 02:26N 40°01' W 009°57'1011.9
2017-Mar-16 01:34N 39°51' W 009°57'1212.0
2017-Mar-16 00:33N 39°39' W 009°57'1211.9
2017-Mar-15 23:33N 39°27' W 009°57'1211.8
2017-Mar-15 22:33N 39°15' W 009°57'1211.6
2017-Mar-15 21:34N 39°04' W 009°57'1211.7
2017-Mar-15 20:34N 38°52' W 009°57'1211.7
2017-Mar-15 19:33N 38°40' W 009°56'1212.0
2017-Mar-15 18:33N 38°28' W 009°53'1212.1
2017-Mar-15 17:34N 38°17' W 009°49'1212.4
2017-Mar-15 16:33N 38°05' W 009°45'1312.3
2017-Mar-15 15:29N 37°52' W 009°42'  

Dump ship's entire track history